• Join FlightAware (Why Join?)
  • Login
  • US Flag 
08:58PM EDT


 

Airport Tracker/Info


-or-


 

Live Flight TrackerFlight Track Log ✈ KFS724 ✈ 26-Apr-2013 ✈ MMMY / MTY - KYIP

Flight Track Log - Related Links

Times and Time Zones

All times are in EDT time to prevent confusion due to time zone crossing. See the KFS724 flight status page for this flight to view local times or setup timezone preferences in your user account.

Time Position Orientation Groundspeed Altitude Reporting Facility
EDT Latitude Longitude Course Direction KTS MPH feet Rate Location/Type
02:40PM 25.8325 -99.8817 36° Northeast 284 327 9,500  Level Houston Center
02:41PM 25.9111 -99.8525 18° North 292 336 10,900 1,380 Climbing Houston Center
02:42PM 26.5112 -99.5232 35° Northeast  Level Estimated
02:42PM 26.0039 -99.8206 17° North 328 377 12,400  Level Houston Center
02:43PM 26.6133 -99.4411 36° Northeast  Level Estimated
02:43PM 26.0783 -99.7514 40° Northeast 340 391 14,400  Level Houston Center
02:44PM 26.7153 -99.3589 36° Northeast  Level Estimated
02:44PM 26.1317 -99.6536 59° Northeast 359 413 16,100  Level Houston Center
02:45PM 26.8172 -99.2766 36° Northeast  Level Estimated
02:45PM 26.2008 -99.5656 49° Northeast 371 427 17,500  Level Houston Center
02:46PM 26.2994 -99.4611 44° Northeast 396 456 19,800 1,680 Climbing Houston Center
02:47PM 26.3744 -99.3681 48° Northeast 401 461 21,100 960 Climbing Houston Center
02:48PM 26.4542 -99.2719 47° Northeast 409 471 21,900 1,020 Climbing Houston Center
02:49PM 26.5422 -99.1736 45° Northeast 429 494 23,300 1,380 Climbing Houston Center
02:50PM 26.6236 -99.0694 49° Northeast 442 509 24,800 1,200 Climbing Houston Center
02:51PM 26.7247 -98.9453 48° Northeast 450 518 25,800 840 Climbing Houston Center
02:52PM 26.8111 -98.8356 49° Northeast 466 536 26,600 720 Climbing Houston Center
02:53PM 26.8986 -98.7256 48° Northeast 473 544 27,300 720 Climbing Houston Center
02:54PM 26.9878 -98.6125 48° Northeast 482 555 28,200 720 Climbing Houston Center
02:55PM 27.0781 -98.5003 48° Northeast 488 562 28,900 660 Climbing Houston Center
02:56PM 27.1878 -98.3617 48° Northeast 496 571 29,600 720 Climbing Houston Center
02:57PM 27.2800 -98.2428 49° Northeast 504 580 30,400 840 Climbing Houston Center
02:58PM 27.3736 -98.1247 48° Northeast 507 583 31,400 960 Climbing Houston Center
02:59PM 27.4650 -98.0081 49° Northeast 502 578 32,400 780 Climbing Houston Center
03:00PM 27.5556 -97.8914 49° Northeast 497 572 33,100 660 Climbing Houston Center
03:01PM 27.6661 -97.7511 48° Northeast 500 575 33,800 540 Climbing Houston Center
03:02PM 27.7575 -97.6328 49° Northeast 501 577 34,300 480 Climbing Houston Center
03:04PM 27.8472 -97.5150 49° Northeast 496 571 34,800 240 Climbing Houston Center
03:05PM 27.9517 -97.3819 48° Northeast 499 574 34,900  Climbing Houston Center
03:06PM 28.0431 -97.2622 49° Northeast 504 580 34,900  Level Houston Center
03:07PM 28.1353 -97.1411 49° Northeast 508 585 34,900  Level Houston Center
03:08PM 28.2275 -97.0200 49° Northeast 508 585 34,900  Level Houston Center
03:09PM 28.3192 -96.8981 49° Northeast 510 587 34,900  Level Houston Center
03:10PM 28.4108 -96.7764 49° Northeast 509 586 34,900  Level Houston Center
03:11PM 28.5203 -96.6303 50° Northeast 509 586 34,900  Level Houston Center
03:12PM 28.6122 -96.5086 49° Northeast 509 586 34,900  Level Houston Center
03:13PM 28.7028 -96.3864 50° Northeast 508 585 34,900  Level Houston Center
03:14PM 28.8011 -96.2733 45° Northeast 503 579 34,900  Level Houston Center
03:15PM 28.9150 -96.1819 35° Northeast 503 579 34,900  Level Houston Center
03:16PM 29.0500 -96.0697 36° Northeast 503 579 34,900  Level Houston Center
03:17PM 29.1625 -95.9775 36° Northeast 504 580 35,000  Climbing Houston Center
03:18PM 29.2769 -95.8839 35° Northeast 504 580 35,000  Level Houston Center
03:19PM 29.3889 -95.7892 36° Northeast 501 577 35,000  Level Houston Center
03:20PM 29.5028 -95.6947 36° Northeast 502 578 35,000  Level Houston Center
03:21PM 29.6408 -95.5817 35° Northeast 505 581 35,000  Level Houston Center
03:22PM 29.7561 -95.4853 36° Northeast 507 583 35,000  Level Houston Center
03:23PM 29.8719 -95.3881 36° Northeast 508 585 35,000  Level Houston Center
03:24PM 29.9867 -95.2914 36° Northeast 506 582 35,000  Level Houston Center
03:25PM 30.1000 -95.1964 36° Northeast 502 578 35,000  Level Houston Center
03:26PM 30.2125 -95.1008 36° Northeast 500 575 35,000  Level Houston Center
03:27PM 30.3219 -95.0056 37° Northeast 492 566 35,000  Level Houston Center
03:28PM 30.4533 -94.8917 37° Northeast 496 571 35,000  Level Houston Center
03:29PM 30.5647 -94.7969 36° Northeast 492 566 35,000  Level Houston Center
03:30PM 30.6750 -94.7014 37° Northeast 493 567 35,000  Level Houston Center
03:31PM 30.7883 -94.6058 36° Northeast 499 574 35,000  Level Houston Center
03:33PM 30.9194 -94.4919 37° Northeast 494 568 35,000  Level Houston Center
03:33PM 30.9369 -94.4733 42° Northeast 497 572 35,000  Level Fort Worth Center
03:34PM 31.0494 -94.3778 36° Northeast 497 572 35,000  Level Fort Worth Center
03:35PM 31.1600 -94.2819 37° Northeast 497 572 35,000  Level Fort Worth Center
03:36PM 31.2722 -94.1858 36° Northeast 497 572 35,000  Level Fort Worth Center
03:37PM 31.3575 -94.1125 36° Northeast 492 566 35,000  Level Houston Center
03:38PM 31.4875 -93.9997 36° Northeast 488 562 35,000  Level Houston Center
03:39PM 31.5967 -93.9044 37° Northeast 489 563 35,000  Level Houston Center
03:40PM 31.7056 -93.8089 37° Northeast 489 563 35,000  Level Houston Center
03:41PM 31.8183 -93.7094 37° Northeast 488 562 35,000  Level Houston Center
03:42PM 31.9267 -93.6169 36° Northeast 489 563 35,000  Level Fort Worth Center
03:43PM 32.0342 -93.5219 37° Northeast 489 563 35,000  Level Fort Worth Center
03:44PM 32.1542 -93.4139 37° Northeast 489 563 35,000  Level Fort Worth Center
03:45PM 32.2511 -93.3161 40° Northeast 494 568 35,000  Level Fort Worth Center
03:46PM 32.3586 -93.2228 36° Northeast 494 568 35,000  Level Fort Worth Center
03:47PM 32.4681 -93.1242 37° Northeast 494 568 35,000  Level Fort Worth Center
03:48PM 32.5894 -93.0147 37° Northeast 500 575 35,000  Level Fort Worth Center
03:49PM 32.7008 -92.9156 37° Northeast 500 575 35,000  Level Fort Worth Center
03:50PM 32.8058 -92.8189 38° Northeast 494 568 35,000  Level Fort Worth Center
03:51PM 32.9169 -92.7192 37° Northeast 494 568 35,000  Level Fort Worth Center
03:52PM 33.0239 -92.6219 37° Northeast 489 563 35,000  Level Fort Worth Center
03:53PM 33.1328 -92.5242 37° Northeast 489 563 35,000  Level Fort Worth Center
03:55PM 33.3494 -92.3244 38° Northeast 479 551 35,000  Level Memphis Center
03:56PM 33.4575 -92.2247 38° Northeast 479 551 35,000  Level Memphis Center
03:57PM 33.5656 -92.1272 37° Northeast 479 551 35,000  Level Memphis Center
03:58PM 33.6733 -92.0269 38° Northeast 479 551 35,000  Level Memphis Center
03:59PM 33.7831 -91.9292 37° Northeast 485 558 35,000  Level Memphis Center
04:00PM 33.8864 -91.8311 38° Northeast 485 558 35,000  Level Memphis Center
04:01PM 33.9878 -91.7325 39° Northeast 474 545 35,000  Level Memphis Center
04:02PM 34.0911 -91.6314 39° Northeast 466 536 35,000  Level Memphis Center
04:03PM 34.1944 -91.5350 38° Northeast 466 536 35,000  Level Memphis Center
04:04PM 34.2997 -91.4333 39° Northeast 471 542 35,000  Level Memphis Center
04:05PM 34.4006 -91.3339 39° Northeast 463 533 35,000  Level Memphis Center
04:06PM 34.5078 -91.2367 37° Northeast 468 539 35,000  Level Memphis Center
04:07PM 34.5958 -91.1467 40° Northeast 468 539 35,000  Level Memphis Center
04:08PM 34.7008 -91.0517 37° Northeast 468 539 35,000  Level Memphis Center
04:09PM 34.8058 -90.9489 39° Northeast 468 539 35,000  Level Memphis Center
04:10PM 34.9106 -90.8483 38° Northeast 468 539 35,000  Level Memphis Center
04:11PM 35.0131 -90.7500 38° Northeast 468 539 35,000  Level Memphis Center
04:12PM 35.1258 -90.6389 39° Northeast 469 540 35,000  Level Memphis Center
04:13PM 35.2283 -90.5375 39° Northeast 469 540 35,000  Level Memphis Center
04:14PM 35.3347 -90.4333 39° Northeast 469 540 35,000  Level Memphis Center
04:15PM 35.4392 -90.3317 38° Northeast 469 540 35,000  Level Memphis Center
04:16PM 35.5414 -90.2294 39° Northeast 474 545 35,000  Level Memphis Center
04:17PM 35.6453 -90.1244 39° Northeast 474 545 35,000  Level Memphis Center
04:18PM 35.7433 -90.0272 39° Northeast 462 532 35,000  Level Memphis Center
04:19PM 35.8450 -89.9242 39° Northeast 462 532 35,000  Level Memphis Center
04:20PM 35.9469 -89.8161 41° Northeast 468 539 35,000  Level Memphis Center
04:21PM 36.0528 -89.7125 38° Northeast 474 545 35,000  Level Memphis Center
04:22PM 36.1583 -89.6064 39° Northeast 474 545 35,000  Level Memphis Center
04:23PM 36.2600 -89.5050 39° Northeast 474 545 35,000  Level Memphis Center
04:24PM 36.3633 -89.4008 39° Northeast 480 552 35,000  Level Memphis Center
04:25PM 36.4667 -89.2939 40° Northeast 499 574 35,000  Level Memphis Center
04:26PM 36.5761 -89.1839 39° Northeast 494 568 35,000  Level Memphis Center
04:27PM 36.6794 -89.0789 39° Northeast 494 568 35,000  Level Memphis Center
04:28PM 36.7844 -88.9683 40° Northeast 494 568 35,000  Level Memphis Center
04:29PM 36.8894 -88.8603 39° Northeast 494 568 35,000  Level Memphis Center
04:30PM 36.9986 -88.7492 39° Northeast 494 568 35,000  Level Memphis Center
04:31PM 37.1053 -88.6378 40° Northeast 494 568 35,000  Level Memphis Center
04:32PM 37.2142 -88.5258 39° Northeast 494 568 35,000  Level Memphis Center
04:33PM 37.3208 -88.4139 40° Northeast 494 568 35,000  Level Memphis Center
04:34PM 37.3986 -88.3242 42° Northeast 506 582 35,000  Level Indianapolis Center
04:35PM 37.5078 -88.2072 40° Northeast 510 587 35,000  Level Indianapolis Center
04:36PM 37.6178 -88.0911 40° Northeast 510 587 35,000  Level Indianapolis Center
04:37PM 37.7281 -87.9742 40° Northeast 511 588 35,000  Level Indianapolis Center
04:38PM 37.8575 -87.8353 40° Northeast 512 589 35,000  Level Indianapolis Center
04:39PM 37.9719 -87.7286 36° Northeast 506 582 35,000  Level Indianapolis Center
04:40PM 38.0947 -87.6394 30° Northeast 502 578 35,000  Level Indianapolis Center
04:41PM 38.2114 -87.5344 35° Northeast 514 592 35,000  Level Indianapolis Center
04:42PM 38.3172 -87.4094 43° Northeast 514 592 35,000  Level Indianapolis Center
04:43PM 38.4264 -87.2850 42° Northeast 515 593 35,000  Level Indianapolis Center
04:44PM 38.5419 -87.1756 37° Northeast 512 589 35,000  Level Indianapolis Center
04:45PM 38.6614 -87.0867 30° Northeast 496 571 35,000  Level Indianapolis Center
04:46PM 38.7806 -86.9911 32° Northeast 500 575 35,000  Level Indianapolis Center
04:47PM 38.8994 -86.8969 32° Northeast 499 574 35,000  Level Indianapolis Center
04:48PM 39.0425 -86.7831 32° Northeast 502 578 35,000  Level Indianapolis Center
04:49PM 39.1597 -86.6897 32° Northeast 500 575 35,000  Level Indianapolis Center
04:50PM 39.2794 -86.5933 32° Northeast 502 578 35,000  Level Indianapolis Center
04:51PM 39.4011 -86.4953 32° Northeast 508 585 35,000  Level Indianapolis Center
04:52PM 39.5219 -86.3975 32° Northeast 510 587 35,000 -300 Level Indianapolis Center
04:53PM 39.6417 -86.3006 32° Northeast 508 585 34,500 -720 Descending Indianapolis Center
04:54PM 39.7639 -86.2019 32° Northeast 509 586 33,600 -780 Descending Indianapolis Center
04:55PM 39.8925 -86.0964 32° Northeast 497 572 33,000 -300 Descending Indianapolis Center
04:56PM 40.0089 -86.0008 32° Northeast 493 567 33,000  Level Indianapolis Center
04:57PM 40.1442 -85.8883 32° Northeast 491 565 33,000  Level Indianapolis Center
04:58PM 40.2600 -85.7936 32° Northeast 490 564 33,000 -780 Level Indianapolis Center
04:59PM 40.3767 -85.6961 32° Northeast 494 568 31,400 -1,500 Descending Indianapolis Center
05:00PM 40.4925 -85.5997 32° Northeast 489 563 29,900 -1,800 Descending Indianapolis Center
05:02PM 40.6014 -85.5078 33° Northeast 466 536 27,700 -2,280 Descending Indianapolis Center
05:03PM 40.7092 -85.4169 33° Northeast 458 527 25,200 -1,980 Descending Indianapolis Center
05:04PM 40.8125 -85.3306 32° Northeast 438 504 23,700 -1,620 Descending Indianapolis Center
05:05PM 40.9258 -85.2331 33° Northeast 415 478 21,900 -1,380 Descending Indianapolis Center
05:06PM 41.0236 -85.1689 26° Northeast 408 470 20,900 -480 Descending Cleveland Center
05:07PM 41.1272 -85.1294 16° North 398 458 21,000  Climbing Cleveland Center
05:08PM 41.2267 -85.0950 15° North 387 445 21,000  Level Cleveland Center
05:08PM 41.2464 -85.0864 18° North 378 435 21,000  Level Chicago Center
05:09PM 41.3450 -85.0464 17° North 374 430 21,000 -60 Level Chicago Center
05:10PM 41.4444 -85.0078 16° North 375 432 20,900 -900 Descending Chicago Center
05:11PM 41.5431 -84.9719 15° North 372 428 19,200 -1,800 Descending Chicago Center
05:12PM 41.6292 -84.9369 17° North 375 432 17,900 -1,800 Descending Cleveland Center
05:13PM 41.7247 -84.8931 19° North 368 423 16,300 -1,800 Descending Cleveland Center
05:14PM 41.7728 -84.7739 62° Northeast 331 381 14,300 -1,680 Descending Cleveland Center
05:15PM 41.8108 -84.6481 68° East 340 391 13,000 -1,380 Descending Cleveland Center
05:16PM 41.8481 -84.5361 66° East 334 384 11,600 -1,380 Descending Cleveland Center
05:17PM 41.8831 -84.4239 67° East 334 384 10,300 -1,080 Descending Cleveland Center
05:17PM 41.8994 -84.3692 68° East 296 341 10,000 -300 Descending Cleveland Center
05:18PM 41.9158 -84.3197 66° East 314 361 10,000  Level Cleveland Center
05:18PM 41.9297 -84.2706 69° East 285 328 10,000  Level Cleveland Center
05:19PM 41.9414 -84.2347 66° East 294 338 10,000  Level Cleveland Center
05:19PM 41.9667 -84.1608 65° Northeast 295 339 10,000  Level Cleveland Center
05:20PM 41.9739 -84.1333 71° East 284 327 10,000 -300 Level Cleveland Center
05:20PM 42.0231 -84.0914 32° Northeast 269 310 9,700 -540 Descending Cleveland Center
05:21PM 42.0361 -84.0753 43° Northeast 271 312 9,500 -1,620 Descending Cleveland Center
05:21PM 42.0894 -84.0361 29° Northeast 264 304 8,100 -1,740 Descending Cleveland Center
05:22PM 42.1003 -84.0228 42° Northeast 260 299 7,800 -1,500 Descending Cleveland Center
05:22PM 42.1475 -83.9692 40° Northeast 280 322 6,600 -1,320 Descending Cleveland Center
05:23PM 42.1586 -83.9531 47° Northeast 265 305 6,500 -1,320 Descending Cleveland Center
05:23PM 42.2036 -83.9050 38° Northeast 257 296 5,300 -1,440 Descending Cleveland Center
05:24PM 42.2125 -83.8914 49° Northeast 265 305 5,100 -1,320 Descending Cleveland Center
05:24PM 42.2617 -83.8464 34° Northeast 266 306 4,000 -1,140 Descending Cleveland Center
05:25PM 42.3194 -83.7931 34° Northeast 254 292 3,200 -540 Descending Cleveland Center
05:26PM 42.3386 -83.7069 73° East 250 288 3,000 -420 Descending Cleveland Center
05:27PM 42.3322 -83.6281 96° East 228 262 2,500 -420 Descending Cleveland Center
05:28PM 42.3117 -83.5428 108° East 196 226 2,200 -300 Descending Cleveland Center
05:29PM 42.2964 -83.4886 111° Southeast 162 186 2,000 -540 Descending Cleveland Center
05:30PM 42.2606 -83.4983 191° South 149 171 1,200 -840 Descending Cleveland Center